createdAt,value
2022-07-26T00:00:13.384Z,55.30
2022-07-26T00:02:47.784Z,54.87
2022-07-26T00:05:16.268Z,53.88
2022-07-26T00:07:43.811Z,53.80
2022-07-26T00:10:11.142Z,53.63
2022-07-26T00:12:38.008Z,51.84
2022-07-26T00:15:07.185Z,52.22
2022-07-26T00:17:34.000Z,52.69
2022-07-26T00:20:00.693Z,52.71
2022-07-26T00:22:36.435Z,52.91
2022-07-26T00:25:05.203Z,52.83
2022-07-26T00:27:32.477Z,53.10
2022-07-26T00:29:59.486Z,52.40
2022-07-26T00:32:26.510Z,51.87
2022-07-26T00:34:53.417Z,51.89
2022-07-26T00:37:21.000Z,51.91
2022-07-26T00:39:48.761Z,51.75
2022-07-26T00:42:15.749Z,52.10
2022-07-26T00:44:45.206Z,53.50
2022-07-26T00:47:12.958Z,54.97
2022-07-26T00:49:39.905Z,54.57
2022-07-26T00:52:07.861Z,54.86
2022-07-26T00:54:35.207Z,54.52
2022-07-26T00:57:02.255Z,55.13
2022-07-26T00:59:29.244Z,54.89
2022-07-26T01:01:56.684Z,55.25
2022-07-26T01:04:23.688Z,56.81
2022-07-26T01:06:50.803Z,57.45
2022-07-26T01:09:18.563Z,57.24
2022-07-26T01:11:45.997Z,56.46
2022-07-26T01:14:12.812Z,57.18
2022-07-26T01:16:39.751Z,56.97
2022-07-26T01:19:06.483Z,56.45
2022-07-26T01:21:33.874Z,56.60
2022-07-26T01:24:00.737Z,56.79
2022-07-26T01:26:27.631Z,56.61
2022-07-26T01:28:54.491Z,56.61
2022-07-26T01:31:21.376Z,56.48
2022-07-26T01:33:48.865Z,56.98
2022-07-26T01:36:15.799Z,57.27
2022-07-26T01:38:42.991Z,57.48
2022-07-26T01:41:10.252Z,58.91
2022-07-26T01:43:37.440Z,57.25
2022-07-26T01:46:06.198Z,57.92
2022-07-26T01:48:33.852Z,56.79
2022-07-26T01:51:01.033Z,58.12
2022-07-26T01:53:27.847Z,57.33
2022-07-26T01:55:54.535Z,57.23
2022-07-26T01:58:22.083Z,58.16
2022-07-26T02:00:49.213Z,57.84
2022-07-26T02:03:15.880Z,58.85
2022-07-26T02:05:42.637Z,59.70
2022-07-26T02:08:10.225Z,61.24
2022-07-26T02:10:56.425Z,62.03
2022-07-26T02:13:24.030Z,62.29
2022-07-26T02:15:50.932Z,62.12
2022-07-26T02:18:17.766Z,63.06
2022-07-26T02:20:44.518Z,63.52
2022-07-26T02:23:11.667Z,64.23
2022-07-26T02:25:38.650Z,64.91
2022-07-26T02:28:05.764Z,64.33
2022-07-26T02:30:32.391Z,63.99
2022-07-26T02:33:00.536Z,63.92
2022-07-26T02:35:27.431Z,63.05
2022-07-26T02:37:54.186Z,61.66
2022-07-26T02:40:21.161Z,60.52
2022-07-26T02:42:47.799Z,61.74
2022-07-26T02:45:14.515Z,62.43
2022-07-26T02:47:52.249Z,63.08
2022-07-26T02:50:20.974Z,63.99
2022-07-26T02:52:48.378Z,64.41
2022-07-26T02:55:16.735Z,64.23
2022-07-26T02:57:46.149Z,64.66
2022-07-26T03:00:15.786Z,63.68
2022-07-26T03:02:42.587Z,63.92
2022-07-26T03:05:10.078Z,64.48
2022-07-26T03:07:36.833Z,64.10
2022-07-26T03:10:04.934Z,64.68
2022-07-26T03:12:31.779Z,65.44
2022-07-26T03:14:58.477Z,64.34
2022-07-26T03:17:25.109Z,64.68
2022-07-26T03:19:51.962Z,64.89
2022-07-26T03:22:18.646Z,65.97
2022-07-26T03:24:45.400Z,66.30
2022-07-26T03:27:12.049Z,66.23
2022-07-26T03:29:38.778Z,67.32
2022-07-26T03:32:05.918Z,66.44
2022-07-26T03:34:33.003Z,67.41
2022-07-26T03:36:59.631Z,68.01
2022-07-26T03:39:26.330Z,66.09
2022-07-26T03:41:53.060Z,66.77
2022-07-26T03:44:19.817Z,66.69
2022-07-26T03:46:46.565Z,67.86
2022-07-26T03:49:16.544Z,67.66
2022-07-26T03:51:44.222Z,66.96
2022-07-26T03:54:11.425Z,67.85
2022-07-26T03:56:38.620Z,68.76
2022-07-26T03:59:09.731Z,64.46
2022-07-26T04:01:41.920Z,64.49
2022-07-26T04:04:10.610Z,64.67
2022-07-26T04:06:39.602Z,65.24
2022-07-26T04:09:08.033Z,65.52
2022-07-26T04:11:35.418Z,66.42
2022-07-26T04:14:02.209Z,66.07
2022-07-26T04:16:28.903Z,66.18
2022-07-26T04:18:55.870Z,65.05
2022-07-26T04:21:22.660Z,66.31
2022-07-26T04:23:51.527Z,66.39
2022-07-26T04:26:20.027Z,66.21
2022-07-26T04:28:46.680Z,66.73
2022-07-26T04:31:13.726Z,66.93
2022-07-26T04:33:40.528Z,66.91
2022-07-26T04:36:07.424Z,67.30
2022-07-26T04:38:34.052Z,67.47
2022-07-26T04:41:00.725Z,65.20
2022-07-26T04:43:27.408Z,64.67
2022-07-26T04:45:54.124Z,62.21
2022-07-26T04:48:20.902Z,63.71
2022-07-26T04:50:47.540Z,64.73
2022-07-26T04:53:14.261Z,65.44
2022-07-26T04:55:41.842Z,63.60
2022-07-26T04:58:09.539Z,63.51
2022-07-26T05:00:56.514Z,64.00
2022-07-26T05:03:25.533Z,62.47
2022-07-26T05:05:52.265Z,63.87
2022-07-26T05:08:19.170Z,62.18
2022-07-26T05:10:45.953Z,62.68
2022-07-26T05:13:12.655Z,63.47
2022-07-26T05:15:39.525Z,62.76
2022-07-26T05:18:12.688Z,62.47
2022-07-26T05:20:40.448Z,61.96
2022-07-26T05:23:07.170Z,61.57
2022-07-26T05:25:34.111Z,62.05
2022-07-26T05:28:01.732Z,59.29
2022-07-26T05:30:28.878Z,61.84
2022-07-26T05:32:55.657Z,58.04
2022-07-26T05:35:22.376Z,57.76
2022-07-26T05:37:49.084Z,54.43
2022-07-26T05:40:15.922Z,54.36
2022-07-26T05:42:42.659Z,52.40
2022-07-26T05:45:10.165Z,50.97
2022-07-26T05:47:37.093Z,50.37
2022-07-26T05:50:04.887Z,53.18
2022-07-26T05:52:31.766Z,52.32
2022-07-26T05:54:59.115Z,49.85
2022-07-26T05:57:25.902Z,48.64
2022-07-26T05:59:52.632Z,49.53
2022-07-26T06:02:19.474Z,48.45
2022-07-26T06:04:47.629Z,49.03
2022-07-26T06:07:14.954Z,52.91
2022-07-26T06:09:41.644Z,49.15
2022-07-26T06:12:08.661Z,49.19
2022-07-26T06:14:36.177Z,47.69
2022-07-26T06:17:04.499Z,49.57
2022-07-26T06:19:31.952Z,48.33
2022-07-26T06:21:58.731Z,50.66
2022-07-26T06:24:25.457Z,46.59
2022-07-26T06:26:56.765Z,50.01
2022-07-26T06:29:24.397Z,49.94
2022-07-26T06:31:58.981Z,49.45
2022-07-26T06:34:25.780Z,47.50
2022-07-26T06:36:52.543Z,47.05
2022-07-26T06:39:19.256Z,46.06
2022-07-26T06:41:45.989Z,45.12
2022-07-26T06:44:12.735Z,47.08
2022-07-26T06:46:39.392Z,44.94
2022-07-26T06:49:06.128Z,46.98
2022-07-26T06:51:34.065Z,44.33
2022-07-26T06:54:01.125Z,43.70
2022-07-26T06:56:27.917Z,46.46
2022-07-26T06:58:56.433Z,43.42
2022-07-26T07:01:55.694Z,42.32
2022-07-26T07:04:10.604Z,43.97
2022-07-26T07:06:37.669Z,43.38
2022-07-26T07:09:05.020Z,42.29
2022-07-26T07:11:35.407Z,43.90
2022-07-26T07:14:03.567Z,46.36
2022-07-26T07:16:30.435Z,45.34
2022-07-26T07:18:57.247Z,43.73
2022-07-26T07:21:24.006Z,44.93
2022-07-26T07:23:50.656Z,42.71
2022-07-26T07:26:17.391Z,44.20
2022-07-26T07:28:44.033Z,43.77
2022-07-26T07:31:10.820Z,44.79
2022-07-26T07:33:50.356Z,44.36
2022-07-26T07:36:20.288Z,45.24
2022-07-26T07:38:47.490Z,41.59
2022-07-26T07:41:14.191Z,44.22
2022-07-26T07:43:41.026Z,45.29
2022-07-26T07:46:07.694Z,42.82
2022-07-26T07:48:34.416Z,44.62
2022-07-26T07:51:01.148Z,44.08
2022-07-26T07:53:27.864Z,42.49
2022-07-26T07:55:57.362Z,42.27
2022-07-26T07:58:24.063Z,44.32
2022-07-26T08:00:51.917Z,44.42
2022-07-26T08:03:19.838Z,46.33
2022-07-26T08:05:49.612Z,44.78
2022-07-26T08:08:18.150Z,43.08
2022-07-26T08:10:52.294Z,47.79
2022-07-26T08:13:21.853Z,45.19
2022-07-26T08:15:50.344Z,46.63
2022-07-26T08:18:17.332Z,43.17
2022-07-26T08:20:46.444Z,43.05
2022-07-26T08:23:13.668Z,43.80
2022-07-26T08:25:55.175Z,42.93
2022-07-26T08:28:38.126Z,41.86
2022-07-26T08:31:09.493Z,42.10
2022-07-26T08:33:36.320Z,44.90
2022-07-26T08:36:07.605Z,42.49
2022-07-26T08:38:34.300Z,44.37
2022-07-26T08:41:01.229Z,43.04
2022-07-26T08:43:28.458Z,42.59
2022-07-26T08:46:02.348Z,40.40
2022-07-26T08:48:29.892Z,40.26
2022-07-26T08:50:57.685Z,40.10
2022-07-26T08:53:24.541Z,43.35
2022-07-26T08:56:06.949Z,41.47
2022-07-26T08:58:37.562Z,43.28
2022-07-26T09:01:05.492Z,40.88
2022-07-26T09:03:32.637Z,42.35
2022-07-26T09:06:17.960Z,42.10
2022-07-26T09:08:47.418Z,40.88
2022-07-26T09:11:33.202Z,44.44
2022-07-26T09:14:02.483Z,41.21
2022-07-26T09:16:30.223Z,39.79
2022-07-26T09:19:16.865Z,41.73
2022-07-26T09:21:43.883Z,39.86
2022-07-26T09:24:10.858Z,39.07
2022-07-26T09:26:38.004Z,38.19
2022-07-26T09:29:10.666Z,40.50
2022-07-26T09:31:39.072Z,40.90
2022-07-26T09:34:07.963Z,40.72
2022-07-26T09:36:51.698Z,42.46
2022-07-26T09:39:33.485Z,41.02
2022-07-26T09:42:27.350Z,37.77
2022-07-26T09:44:59.691Z,38.28
2022-07-26T09:47:37.339Z,43.18
2022-07-26T09:50:13.840Z,40.87
2022-07-26T09:52:41.353Z,37.10
2022-07-26T09:55:09.314Z,37.09
2022-07-26T09:57:36.085Z,37.43
2022-07-26T10:00:06.039Z,37.99
2022-07-26T10:02:34.744Z,37.48
2022-07-26T10:05:01.627Z,41.41
2022-07-26T10:07:28.686Z,36.74
2022-07-26T10:10:03.678Z,36.41
2022-07-26T10:12:32.782Z,35.75
2022-07-26T10:14:59.728Z,39.45
2022-07-26T10:17:31.677Z,38.04
2022-07-26T10:20:10.580Z,36.31
2022-07-26T10:22:46.715Z,39.26
2022-07-26T10:25:19.993Z,36.45
2022-07-26T10:27:58.033Z,34.98
2022-07-26T10:30:33.605Z,34.89
2022-07-26T10:33:13.628Z,36.90
2022-07-26T10:35:44.812Z,32.77
2022-07-26T10:38:27.350Z,36.21
2022-07-26T10:41:06.644Z,34.25
2022-07-26T10:43:42.617Z,33.75
2022-07-26T10:46:18.861Z,33.88
2022-07-26T10:49:06.655Z,34.01
2022-07-26T10:51:37.504Z,33.90
2022-07-26T10:54:10.861Z,32.17
2022-07-26T10:56:38.333Z,31.90
2022-07-26T10:59:06.323Z,31.99
2022-07-26T11:01:43.563Z,32.02
2022-07-26T11:04:20.944Z,32.16
2022-07-26T11:06:47.951Z,32.40
2022-07-26T11:09:14.979Z,33.36
2022-07-26T11:11:46.417Z,33.20
2022-07-26T11:14:15.870Z,32.02
2022-07-26T11:16:48.340Z,31.23
2022-07-26T11:19:24.915Z,31.52
2022-07-26T11:22:01.245Z,30.92
2022-07-26T11:24:28.594Z,31.41
2022-07-26T11:26:56.389Z,29.76
2022-07-26T11:29:38.009Z,30.73
2022-07-26T11:32:21.928Z,30.92
2022-07-26T11:35:00.115Z,31.10
2022-07-26T11:37:27.582Z,30.17
2022-07-26T11:39:54.422Z,30.24
2022-07-26T11:42:22.232Z,30.56
2022-07-26T11:44:49.904Z,29.03
2022-07-26T11:47:24.223Z,29.81
2022-07-26T11:50:11.551Z,29.77
2022-07-26T11:52:39.327Z,28.92
2022-07-26T11:55:07.336Z,28.25
2022-07-26T11:57:34.020Z,30.23
2022-07-26T12:00:01.592Z,31.64
2022-07-26T12:02:30.893Z,29.58
2022-07-26T12:05:21.462Z,29.76
2022-07-26T12:07:56.260Z,28.56
2022-07-26T12:10:23.313Z,28.48
2022-07-26T12:12:50.028Z,28.15
2022-07-26T12:15:16.754Z,28.35
2022-07-26T12:17:59.899Z,28.18
2022-07-26T12:20:28.120Z,29.13
2022-07-26T12:23:06.059Z,27.13
2022-07-26T12:25:32.824Z,26.63
2022-07-26T12:27:59.697Z,28.21
2022-07-26T12:30:30.725Z,27.17
2022-07-26T12:33:02.357Z,26.73
2022-07-26T12:35:33.689Z,26.34
2022-07-26T12:38:01.152Z,25.04
2022-07-26T12:40:40.999Z,26.65
2022-07-26T12:43:07.700Z,28.07
2022-07-26T12:45:35.776Z,26.83
2022-07-26T12:48:07.406Z,28.09
2022-07-26T12:50:34.155Z,27.97
2022-07-26T12:53:07.742Z,26.90
2022-07-26T12:55:35.931Z,26.44
2022-07-26T12:58:02.773Z,26.46
2022-07-26T13:00:30.623Z,29.33
2022-07-26T13:02:57.854Z,27.54
2022-07-26T13:05:24.532Z,26.92
2022-07-26T13:07:52.997Z,28.26
2022-07-26T13:10:32.920Z,26.70
2022-07-26T13:13:00.572Z,27.00
2022-07-26T13:15:37.404Z,27.66
2022-07-26T13:18:07.510Z,26.74
2022-07-26T13:20:36.126Z,27.00
2022-07-26T13:23:03.356Z,26.55
2022-07-26T13:25:38.596Z,27.00
2022-07-26T13:28:08.480Z,27.23
2022-07-26T13:30:38.384Z,27.18
2022-07-26T13:33:05.417Z,25.79
2022-07-26T13:35:32.089Z,26.85
2022-07-26T13:37:58.813Z,26.66
2022-07-26T13:40:30.803Z,26.21
2022-07-26T13:42:58.090Z,25.73
2022-07-26T13:45:24.742Z,27.08
2022-07-26T13:47:57.105Z,26.53
2022-07-26T13:50:25.714Z,26.72
2022-07-26T13:52:52.401Z,26.25
2022-07-26T13:55:20.813Z,26.42
2022-07-26T13:57:55.870Z,25.95
2022-07-26T14:00:24.387Z,26.24
2022-07-26T14:02:51.306Z,26.79
2022-07-26T14:05:18.899Z,26.51
2022-07-26T14:07:45.681Z,26.17
2022-07-26T14:10:12.351Z,25.77
2022-07-26T14:12:40.826Z,26.22
2022-07-26T14:15:15.527Z,26.15
2022-07-26T14:17:47.472Z,25.99
2022-07-26T14:20:16.925Z,24.90
2022-07-26T14:22:43.982Z,26.07
2022-07-26T14:25:10.650Z,25.86
2022-07-26T14:27:37.455Z,25.36
2022-07-26T14:30:05.500Z,25.41
2022-07-26T14:32:32.174Z,26.34
2022-07-26T14:34:58.881Z,25.97
2022-07-26T14:37:43.503Z,25.86
2022-07-26T14:40:16.011Z,26.87
2022-07-26T14:42:43.380Z,25.31
2022-07-26T14:45:11.503Z,25.85
2022-07-26T14:47:38.284Z,25.53
2022-07-26T14:50:08.307Z,25.35
2022-07-26T14:52:45.681Z,26.04
2022-07-26T14:55:14.034Z,25.59
2022-07-26T14:57:41.374Z,26.52
2022-07-26T15:00:13.711Z,26.24
2022-07-26T15:02:41.927Z,25.79
2022-07-26T15:05:10.137Z,25.50
2022-07-26T15:07:37.062Z,25.50
2022-07-26T15:10:05.192Z,26.17
2022-07-26T15:12:32.179Z,26.46
2022-07-26T15:14:58.840Z,25.57
2022-07-26T15:17:25.505Z,26.09
2022-07-26T15:19:52.222Z,26.41
2022-07-26T15:22:18.848Z,25.47
2022-07-26T15:24:45.467Z,25.85
2022-07-26T15:27:12.132Z,25.83
2022-07-26T15:29:38.971Z,25.66
2022-07-26T15:32:06.677Z,25.70
2022-07-26T15:34:33.689Z,26.89
2022-07-26T15:37:01.194Z,25.65
2022-07-26T15:39:28.235Z,25.51
2022-07-26T15:41:55.135Z,26.31
2022-07-26T15:44:24.284Z,26.18
2022-07-26T15:46:53.164Z,25.41
2022-07-26T15:49:20.278Z,26.13
2022-07-26T15:51:47.453Z,25.95
2022-07-26T15:54:16.320Z,26.23
2022-07-26T15:56:43.733Z,26.26
2022-07-26T15:59:10.396Z,26.16
2022-07-26T16:01:37.544Z,26.36
2022-07-26T16:04:05.795Z,26.05
2022-07-26T16:06:34.469Z,26.65
2022-07-26T16:09:19.296Z,26.01
2022-07-26T16:11:47.539Z,26.51
2022-07-26T16:14:15.257Z,26.77
2022-07-26T16:16:42.131Z,25.81
2022-07-26T16:19:09.271Z,25.73
2022-07-26T16:21:37.174Z,26.77
2022-07-26T16:24:07.082Z,26.35
2022-07-26T16:26:34.642Z,27.04
2022-07-26T16:29:01.325Z,26.42
2022-07-26T16:31:28.439Z,26.13
2022-07-26T16:33:55.217Z,26.34
2022-07-26T16:36:21.985Z,25.58
2022-07-26T16:38:48.664Z,26.83
2022-07-26T16:41:15.315Z,26.85
2022-07-26T16:43:42.038Z,27.44
2022-07-26T16:46:09.023Z,26.43
2022-07-26T16:48:35.690Z,28.77
2022-07-26T16:51:02.786Z,28.44
2022-07-26T16:53:29.490Z,29.00
2022-07-26T16:55:56.141Z,28.65
2022-07-26T16:58:23.906Z,28.83
2022-07-26T17:00:50.614Z,30.58
2022-07-26T17:03:17.560Z,31.13
2022-07-26T17:05:46.474Z,31.58
2022-07-26T17:08:13.286Z,32.36
2022-07-26T17:10:40.056Z,33.10
2022-07-26T17:13:08.070Z,33.43
2022-07-26T17:15:34.747Z,33.43
2022-07-26T17:18:01.552Z,32.63
2022-07-26T17:20:28.803Z,34.75
2022-07-26T17:22:56.065Z,36.14
2022-07-26T17:25:22.770Z,34.90
2022-07-26T17:27:51.175Z,36.89
2022-07-26T17:30:18.144Z,35.85
2022-07-26T17:32:44.961Z,35.75
2022-07-26T17:35:11.848Z,36.85
2022-07-26T17:37:38.652Z,35.66
2022-07-26T17:40:08.392Z,36.14
2022-07-26T17:42:36.121Z,34.42
2022-07-26T17:45:03.143Z,38.09
2022-07-26T17:47:30.680Z,36.47
2022-07-26T17:52:51.007Z,36.75
2022-07-26T17:55:19.237Z,36.65
2022-07-26T17:57:47.802Z,36.47
2022-07-26T18:00:16.331Z,36.84
2022-07-26T18:02:43.018Z,37.71
2022-07-26T18:05:11.343Z,36.07
2022-07-26T18:07:38.802Z,36.79
2022-07-26T18:10:06.462Z,37.88
2022-07-26T18:12:33.255Z,37.72
2022-07-26T18:14:59.993Z,38.50
2022-07-26T18:17:26.949Z,37.87
2022-07-26T18:19:53.579Z,38.16
2022-07-26T18:22:20.238Z,38.04
2022-07-26T18:24:46.932Z,38.41
2022-07-26T18:27:13.631Z,38.80
2022-07-26T18:29:40.515Z,37.95
2022-07-26T18:32:07.342Z,36.95
2022-07-26T18:34:34.026Z,37.44
2022-07-26T18:37:00.687Z,38.12
2022-07-26T18:39:32.853Z,37.55
2022-07-26T18:42:00.667Z,37.06
2022-07-26T18:44:27.458Z,37.54
2022-07-26T18:46:56.478Z,37.36
2022-07-26T18:49:23.741Z,37.59
2022-07-26T18:51:59.147Z,37.69
2022-07-26T18:54:31.189Z,37.94
2022-07-26T18:56:58.359Z,38.25
2022-07-26T18:59:25.067Z,38.39
2022-07-26T19:01:51.848Z,37.79
2022-07-26T19:04:19.507Z,38.89
2022-07-26T19:06:49.750Z,39.05
2022-07-26T19:09:16.748Z,39.77
2022-07-26T19:11:45.817Z,39.57
2022-07-26T19:14:12.708Z,38.81
2022-07-26T19:16:39.883Z,39.70
2022-07-26T19:19:06.573Z,40.81
2022-07-26T19:21:33.404Z,40.87
2022-07-26T19:24:00.196Z,40.25
2022-07-26T19:26:27.613Z,39.81
2022-07-26T19:28:54.634Z,40.73
2022-07-26T19:31:22.072Z,40.97
2022-07-26T19:33:48.839Z,40.95
2022-07-26T19:36:25.312Z,39.91
2022-07-26T19:38:53.345Z,41.26
2022-07-26T19:41:20.167Z,41.35
2022-07-26T19:43:46.891Z,41.38
2022-07-26T19:46:13.709Z,41.81
2022-07-26T19:48:40.678Z,41.63
2022-07-26T19:51:07.433Z,42.31
2022-07-26T19:53:34.141Z,43.00
2022-07-26T19:56:00.793Z,42.14
2022-07-26T19:58:29.319Z,42.63
2022-07-26T20:00:56.143Z,42.45
2022-07-26T20:03:22.827Z,43.09
2022-07-26T20:05:49.501Z,41.82
2022-07-26T20:08:16.510Z,42.69
2022-07-26T20:10:43.173Z,43.26
2022-07-26T20:13:09.840Z,43.81
2022-07-26T20:15:36.515Z,41.79
2022-07-26T20:18:04.207Z,43.04
2022-07-26T20:20:31.104Z,44.42
2022-07-26T20:22:57.835Z,43.97
2022-07-26T20:25:25.350Z,45.68
2022-07-26T20:27:52.062Z,46.00
2022-07-26T20:30:18.812Z,46.33
2022-07-26T20:32:45.534Z,45.46
2022-07-26T20:35:12.275Z,46.00
2022-07-26T20:37:40.864Z,45.38
2022-07-26T20:40:09.205Z,45.86
2022-07-26T20:42:36.673Z,47.56
2022-07-26T20:45:11.384Z,48.02
2022-07-26T20:47:43.134Z,47.79
2022-07-26T20:50:13.435Z,48.16
2022-07-26T20:52:40.336Z,48.69
2022-07-26T20:55:08.477Z,49.21
2022-07-26T20:57:35.684Z,47.84
2022-07-26T21:00:04.602Z,47.41
2022-07-26T21:02:31.482Z,47.42
2022-07-26T21:04:58.851Z,46.33
2022-07-26T21:07:58.315Z,43.86
2022-07-26T21:10:13.564Z,43.71
2022-07-26T21:12:40.316Z,44.28
2022-07-26T21:15:07.423Z,44.56
2022-07-26T21:17:34.790Z,45.16
2022-07-26T21:20:02.964Z,45.10
2022-07-26T21:22:29.778Z,45.53
2022-07-26T21:24:56.810Z,45.16
2022-07-26T21:27:23.523Z,44.71
2022-07-26T21:29:50.208Z,45.91
2022-07-26T21:32:16.916Z,46.11
2022-07-26T21:34:43.631Z,45.86
2022-07-26T21:37:10.447Z,45.46
2022-07-26T21:39:37.093Z,45.46
2022-07-26T21:42:04.606Z,45.68
2022-07-26T21:44:31.819Z,46.02
2022-07-26T21:46:58.578Z,46.59
2022-07-26T21:49:25.324Z,46.51
2022-07-26T21:51:52.070Z,46.22
2022-07-26T21:54:18.769Z,46.07
2022-07-26T21:56:45.514Z,46.02
2022-07-26T21:59:12.730Z,46.54
2022-07-26T22:01:39.770Z,46.55
2022-07-26T22:04:06.848Z,46.87
2022-07-26T22:06:33.494Z,46.57
2022-07-26T22:09:00.132Z,47.80
2022-07-26T22:11:26.845Z,47.19
2022-07-26T22:13:53.773Z,48.52
2022-07-26T22:16:20.855Z,47.99
2022-07-26T22:18:48.101Z,47.84
2022-07-26T22:21:14.745Z,48.31
2022-07-26T22:23:41.484Z,48.45
2022-07-26T22:26:08.303Z,47.94
2022-07-26T22:28:35.082Z,48.33
2022-07-26T22:31:01.787Z,48.59
2022-07-26T22:33:28.592Z,48.80
2022-07-26T22:35:55.257Z,49.53
2022-07-26T22:38:22.001Z,49.51
2022-07-26T22:40:48.924Z,49.22
2022-07-26T22:43:15.712Z,49.28
2022-07-26T22:45:42.781Z,49.86
2022-07-26T22:48:09.683Z,50.23
2022-07-26T22:50:37.102Z,50.24
2022-07-26T22:53:04.100Z,51.32
2022-07-26T22:55:31.165Z,51.85
2022-07-26T22:57:58.059Z,51.43
2022-07-26T23:00:25.197Z,51.61
2022-07-26T23:02:52.385Z,51.90
2022-07-26T23:05:19.747Z,52.24
2022-07-26T23:07:48.043Z,52.96
2022-07-26T23:10:15.933Z,52.63
2022-07-26T23:12:42.628Z,52.60
2022-07-26T23:15:10.381Z,52.70
2022-07-26T23:17:37.619Z,52.93
2022-07-26T23:20:06.521Z,53.59
2022-07-26T23:22:33.656Z,53.83
2022-07-26T23:25:00.367Z,54.18
2022-07-26T23:27:27.037Z,53.89
2022-07-26T23:29:53.790Z,54.17
2022-07-26T23:32:20.468Z,54.53
2022-07-26T23:34:47.234Z,54.87
2022-07-26T23:37:13.950Z,54.92
2022-07-26T23:39:41.088Z,54.65
2022-07-26T23:42:07.969Z,55.24
2022-07-26T23:44:34.701Z,54.81
2022-07-26T23:47:01.659Z,55.04
2022-07-26T23:49:28.507Z,55.74
2022-07-26T23:51:55.458Z,55.72
2022-07-26T23:54:22.155Z,56.07
2022-07-26T23:56:48.834Z,56.65
2022-07-26T23:59:15.917Z,56.63
